Time;durP1;ratioP1;P1;durP2;ratioP2;P2;SDS_P1;SDS_P2;PMS_P1;PMS_P2;Temp;Humidity;BMP_temperature;BMP_pressure;BME280_temperature;BME280_humidity;BME280_pressure;Samples;Min_cycle;Max_cycle;Signal;HPM_P1;HPM_P2
2023/06/25 00:01:27;;;;;;;24.20;23.10;;;26.60;65.40;;;;;;5012232;28;20959;-63
2023/06/25 00:03:54;;;;;;;24.23;22.83;;;26.60;65.20;;;;;;5012488;28;20470;-62
2023/06/25 00:06:22;;;;;;;25.97;24.77;;;26.50;65.30;;;;;;5012269;28;20481;-62
2023/06/25 00:08:50;;;;;;;25.17;23.97;;;26.50;65.80;;;;;;5012345;28;20816;-63
2023/06/25 00:11:17;;;;;;;22.70;21.70;;;26.50;65.80;;;;;;5011565;28;20959;-63
2023/06/25 00:13:44;;;;;;;24.10;23.10;;;26.40;65.80;;;;;;5012286;28;20591;-60
2023/06/25 00:16:10;;;;;;;25.27;24.00;;;26.40;65.90;;;;;;5012135;28;20477;-60
2023/06/25 00:18:37;;;;;;;27.80;25.57;;;26.40;66.10;;;;;;5012187;28;20450;-62
2023/06/25 00:21:04;;;;;;;23.93;22.93;;;26.30;66.00;;;;;;5011823;28;20489;-63
2023/06/25 00:23:31;;;;;;;24.70;23.60;;;26.30;66.10;;;;;;5012133;28;20466;-61
2023/06/25 00:26:00;;;;;;;24.40;23.27;;;26.30;66.40;;;;;;5012048;28;20481;-61
2023/06/25 00:28:26;;;;;;;24.07;23.07;;;26.20;66.60;;;;;;5012062;28;20828;-63
2023/06/25 00:30:53;;;;;;;24.50;23.30;;;26.20;67.00;;;;;;5011920;28;20864;-63
2023/06/25 00:33:20;;;;;;;22.73;21.73;;;26.10;67.50;;;;;;5011828;28;20565;-63
2023/06/25 00:36:07;;;;;;;23.57;22.43;;;26.10;67.90;;;;;;5011925;28;20481;-63
2023/06/25 00:38:35;;;;;;;24.93;23.67;;;26.10;68.10;;;;;;5011540;28;20446;-62
2023/06/25 00:41:03;;;;;;;25.67;24.37;;;26.00;68.40;;;;;;4992384;28;20443;-61
2023/06/25 00:43:30;;;;;;;24.30;23.10;;;26.00;68.50;;;;;;4992208;28;20494;-62
2023/06/25 00:45:58;;;;;;;24.33;23.20;;;25.90;68.60;;;;;;4991872;28;20490;-61
2023/06/25 00:48:25;;;;;;;24.87;23.53;;;25.90;69.00;;;;;;4992809;28;20819;-60
2023/06/25 00:50:52;;;;;;;22.00;21.10;;;25.90;69.10;;;;;;5011873;28;21166;-60
2023/06/25 00:53:21;;;;;;;22.97;21.87;;;25.90;69.20;;;;;;5011529;28;21059;-60
2023/06/25 00:55:50;;;;;;;24.30;23.30;;;25.80;69.20;;;;;;5011668;28;20452;-62
2023/06/25 00:58:22;;;;;;;23.70;22.77;;;25.70;69.40;;;;;;5011814;28;20456;-58
2023/06/25 01:00:49;;;;;;;23.60;22.50;;;25.80;69.90;;;;;;5011683;28;20470;-62
2023/06/25 01:03:26;;;;;;;23.27;21.77;;;25.70;70.20;;;;;;5011680;28;20469;-62
2023/06/25 01:06:00;;;;;;;25.83;24.73;;;25.70;70.30;;;;;;5011495;28;20492;-62
2023/06/25 01:08:29;;;;;;;24.10;23.00;;;25.60;70.70;;;;;;5011406;28;20503;-62
2023/06/25 01:10:57;;;;;;;24.93;23.87;;;25.60;71.00;;;;;;5011140;28;20450;-60
2023/06/25 01:13:25;;;;;;;23.80;22.63;;;25.60;71.40;;;;;;5011551;28;20513;-63
2023/06/25 01:15:52;;;;;;;24.27;22.63;;;25.60;71.80;;;;;;5011390;28;20943;-62
2023/06/25 01:18:22;;;;;;;22.20;21.30;;;25.50;72.10;;;;;;5011486;28;20533;-62
2023/06/25 01:20:52;;;;;;;23.13;22.13;;;25.50;72.60;;;;;;5011197;28;20460;-63
2023/06/25 01:23:21;;;;;;;23.93;22.93;;;25.50;73.50;;;;;;5011440;28;20473;-61
2023/06/25 01:25:48;;;;;;;23.87;22.77;;;25.40;74.40;;;;;;5011370;28;20504;-63
2023/06/25 01:28:19;;;;;;;24.40;23.30;;;25.40;74.80;;;;;;5011422;28;20882;-63
2023/06/25 01:30:47;;;;;;;22.80;21.90;;;25.40;74.80;;;;;;5011129;28;20445;-63
2023/06/25 01:33:15;;;;;;;23.00;21.90;;;25.40;74.60;;;;;;5011053;28;20486;-61
2023/06/25 01:35:42;;;;;;;23.47;22.43;;;25.40;74.50;;;;;;5011160;28;20514;-59
2023/06/25 01:38:10;;;;;;;24.40;23.30;;;25.30;74.50;;;;;;5011329;28;20533;-62
2023/06/25 01:40:38;;;;;;;24.57;23.57;;;25.30;74.30;;;;;;5011089;28;21022;-62
2023/06/25 01:43:05;;;;;;;23.97;22.90;;;25.30;74.70;;;;;;5011337;28;20493;-61
2023/06/25 01:45:32;;;;;;;25.17;24.07;;;25.30;74.90;;;;;;5011214;28;20485;-61
2023/06/25 01:47:59;;;;;;;24.20;23.10;;;25.30;74.60;;;;;;5011268;28;20533;-61
2023/06/25 01:50:26;;;;;;;24.37;23.33;;;25.20;74.50;;;;;;5010970;28;20484;-61
2023/06/25 01:52:53;;;;;;;25.53;24.33;;;25.20;75.10;;;;;;5010981;28;20573;-62
2023/06/25 01:55:20;;;;;;;23.30;22.27;;;25.20;75.30;;;;;;5011120;28;20457;-62
2023/06/25 01:57:48;;;;;;;23.70;22.50;;;25.20;75.70;;;;;;5011165;28;20537;-63
2023/06/25 02:00:16;;;;;;;21.60;20.60;;;25.20;75.70;;;;;;5014311;28;21002;-61
2023/06/25 02:02:44;;;;;;;23.20;22.30;;;25.10;76.00;;;;;;5014640;28;20496;-63
2023/06/25 02:05:11;;;;;;;22.70;21.83;;;25.10;76.00;;;;;;5014662;28;20446;-61
2023/06/25 02:07:38;;;;;;;22.43;21.43;;;25.10;76.00;;;;;;5014564;28;20658;-63
2023/06/25 02:10:06;;;;;;;24.03;23.03;;;25.10;76.20;;;;;;5014418;28;20480;-58
2023/06/25 02:12:33;;;;;;;23.30;22.33;;;25.10;76.30;;;;;;5014419;28;20485;-63
2023/06/25 02:15:02;;;;;;;23.80;22.70;;;25.10;76.40;;;;;;5014479;28;20492;-62
2023/06/25 02:17:29;;;;;;;22.63;21.63;;;25.00;76.60;;;;;;5014273;28;20453;-61
2023/06/25 02:19:56;;;;;;;22.17;21.27;;;25.00;76.80;;;;;;5014142;28;20888;-61
2023/06/25 02:22:22;;;;;;;24.13;23.10;;;25.00;77.00;;;;;;5014256;28;20531;-63
2023/06/25 02:24:49;;;;;;;24.43;23.40;;;25.00;77.30;;;;;;5014363;28;20608;-60
2023/06/25 02:27:16;;;;;;;22.67;21.67;;;25.00;77.30;;;;;;5014025;28;20482;-62
2023/06/25 02:29:43;;;;;;;24.20;23.10;;;25.00;77.50;;;;;;5014018;28;20461;-61
2023/06/25 02:32:11;;;;;;;24.87;23.77;;;25.00;77.70;;;;;;5014107;28;20593;-63
2023/06/25 02:34:38;;;;;;;23.57;22.10;;;25.00;77.70;;;;;;5014091;28;20477;-62
2023/06/25 02:37:13;;;;;;;22.87;21.87;;;24.90;77.80;;;;;;5014073;28;20533;-62
2023/06/25 02:39:40;;;;;;;24.40;23.30;;;24.90;78.00;;;;;;5013785;28;20527;-62
2023/06/25 02:42:07;;;;;;;22.73;21.83;;;24.90;78.20;;;;;;5013665;28;20847;-62
2023/06/25 02:44:34;;;;;;;22.90;22.00;;;24.90;78.00;;;;;;5014014;28;20486;-63
2023/06/25 02:47:01;;;;;;;23.93;23.03;;;24.80;77.90;;;;;;5013648;28;20481;-62
2023/06/25 02:49:29;;;;;;;24.73;23.57;;;24.70;77.70;;;;;;5013599;28;20489;-62
2023/06/25 02:51:56;;;;;;;24.10;23.10;;;24.70;78.10;;;;;;5013590;28;20531;-61
2023/06/25 02:54:23;;;;;;;23.10;22.03;;;24.70;78.40;;;;;;5013798;28;20610;-62
2023/06/25 02:56:52;;;;;;;24.77;23.67;;;24.70;78.30;;;;;;5013545;28;20485;-61
2023/06/25 02:59:19;;;;;;;24.03;23.03;;;24.70;78.30;;;;;;5013524;28;20537;-62
2023/06/25 03:01:46;;;;;;;24.60;23.50;;;24.70;77.90;;;;;;5013415;28;20450;-62
2023/06/25 03:04:13;;;;;;;24.90;23.90;;;24.70;77.90;;;;;;5014303;28;20474;-62
2023/06/25 03:06:42;;;;;;;23.97;22.87;;;24.70;78.20;;;;;;5013411;28;20571;-61
2023/06/25 03:09:10;;;;;;;24.90;23.70;;;24.70;78.00;;;;;;5012837;28;20482;-62
2023/06/25 03:11:36;;;;;;;24.53;23.40;;;24.70;77.60;;;;;;5013224;28;20456;-63
2023/06/25 03:14:03;;;;;;;26.30;24.80;;;24.60;77.80;;;;;;5013193;28;20580;-58
2023/06/25 03:16:30;;;;;;;22.87;21.77;;;24.70;77.90;;;;;;5013059;28;20998;-62
2023/06/25 03:18:57;;;;;;;23.80;22.80;;;24.70;77.90;;;;;;5012983;28;20474;-62
2023/06/25 03:21:24;;;;;;;23.07;22.07;;;24.70;78.10;;;;;;5013431;28;20529;-61
2023/06/25 03:23:52;;;;;;;23.80;22.57;;;24.60;78.10;;;;;;5013090;28;20536;-62
2023/06/25 03:26:19;;;;;;;24.03;22.93;;;24.60;78.60;;;;;;5013043;28;20485;-62
2023/06/25 03:28:46;;;;;;;24.10;23.00;;;24.60;78.80;;;;;;5013199;28;20488;-62
2023/06/25 03:31:13;;;;;;;22.17;21.17;;;24.60;79.00;;;;;;5012599;28;20481;-59
2023/06/25 03:33:40;;;;;;;22.57;21.57;;;24.60;78.80;;;;;;5012905;28;20577;-61
2023/06/25 03:36:07;;;;;;;23.53;22.53;;;24.60;78.70;;;;;;5012945;28;20478;-63
2023/06/25 03:38:34;;;;;;;23.83;22.53;;;24.60;78.40;;;;;;5012558;28;20959;-61
2023/06/25 03:41:03;;;;;;;24.03;22.93;;;24.50;78.60;;;;;;5013148;28;20967;-62
2023/06/25 03:43:29;;;;;;;22.00;21.00;;;24.50;78.70;;;;;;5012789;28;20481;-62
2023/06/25 03:45:56;;;;;;;22.37;21.37;;;24.50;78.80;;;;;;5012668;28;20480;-62
2023/06/25 03:48:23;;;;;;;22.43;21.43;;;24.50;79.00;;;;;;5012583;28;20485;-62
2023/06/25 03:50:50;;;;;;;24.23;22.93;;;24.50;79.10;;;;;;5012503;28;20478;-61
2023/06/25 03:53:17;;;;;;;23.07;21.97;;;24.50;79.30;;;;;;5012412;28;20521;-59
2023/06/25 03:55:44;;;;;;;22.23;21.33;;;24.50;79.40;;;;;;5012592;28;20477;-59
2023/06/25 03:58:12;;;;;;;21.07;20.13;;;24.50;79.70;;;;;;5012237;28;20482;-61
2023/06/25 04:00:39;;;;;;;24.50;23.50;;;24.50;80.10;;;;;;5012500;28;20485;-61
2023/06/25 04:03:06;;;;;;;22.20;21.30;;;24.50;80.80;;;;;;5012228;28;20519;-60
2023/06/25 04:05:33;;;;;;;23.87;22.87;;;24.40;81.10;;;;;;5012378;28;20481;-61
2023/06/25 04:08:00;;;;;;;25.70;24.67;;;24.40;81.30;;;;;;5012122;28;20485;-60
2023/06/25 04:10:27;;;;;;;25.80;24.80;;;24.50;81.50;;;;;;5012519;28;20489;-60
2023/06/25 04:12:54;;;;;;;22.63;21.73;;;24.50;81.70;;;;;;5012131;28;20569;-61
2023/06/25 04:15:22;;;;;;;22.73;21.83;;;24.40;82.10;;;;;;5012198;28;20532;-56
2023/06/25 04:17:49;;;;;;;23.87;22.57;;;24.40;82.70;;;;;;5011870;28;20481;-58
2023/06/25 04:20:16;;;;;;;24.53;23.33;;;24.40;83.30;;;;;;5012234;28;20500;-56
2023/06/25 04:22:43;;;;;;;25.07;23.87;;;24.40;83.50;;;;;;5011578;28;20554;-59
2023/06/25 04:25:10;;;;;;;23.53;22.00;;;24.40;85.10;;;;;;5012124;28;20489;-60
2023/06/25 04:27:37;;;;;;;25.67;24.57;;;24.50;85.10;;;;;;5011778;28;20478;-61
2023/06/25 04:30:04;;;;;;;24.97;23.87;;;24.50;85.40;;;;;;5012215;28;20481;-52
2023/06/25 04:32:33;;;;;;;25.00;23.90;;;24.50;85.60;;;;;;5011976;28;20509;-62
2023/06/25 04:35:00;;;;;;;23.37;22.37;;;24.50;85.40;;;;;;5012009;28;20458;-61
2023/06/25 04:37:27;;;;;;;23.80;22.80;;;24.50;85.70;;;;;;5011721;28;20490;-61
2023/06/25 04:39:54;;;;;;;25.83;24.57;;;24.60;86.20;;;;;;5012002;28;20875;-60
2023/06/25 04:42:22;;;;;;;25.20;24.20;;;24.60;86.00;;;;;;5012018;28;20469;-61
2023/06/25 04:44:48;;;;;;;25.20;24.00;;;24.60;86.10;;;;;;5011987;28;20474;-60
2023/06/25 04:47:15;;;;;;;23.97;22.93;;;24.60;86.30;;;;;;5011383;28;20489;-61
2023/06/25 04:49:44;;;;;;;23.87;22.97;;;24.60;87.10;;;;;;5011916;28;20486;-60
2023/06/25 04:52:18;;;;;;;24.70;23.67;;;24.60;87.20;;;;;;5012240;28;20553;-58
2023/06/25 04:54:45;;;;;;;26.57;25.40;;;24.60;87.20;;;;;;5011558;28;20785;-58
2023/06/25 04:57:12;;;;;;;25.80;24.70;;;24.70;87.30;;;;;;5011585;28;20472;-59
2023/06/25 04:59:39;;;;;;;27.30;25.90;;;24.70;87.80;;;;;;5011735;28;20442;-59
2023/06/25 05:02:06;;;;;;;25.60;24.50;;;24.70;88.00;;;;;;5011165;28;20545;-62
2023/06/25 05:04:33;;;;;;;25.87;24.70;;;24.70;88.00;;;;;;5011478;28;20517;-63
2023/06/25 05:07:02;;;;;;;25.67;24.47;;;24.70;88.20;;;;;;5011509;28;20454;-62
2023/06/25 05:09:28;;;;;;;25.43;24.33;;;24.70;88.60;;;;;;5011626;28;20932;-61
2023/06/25 05:11:55;;;;;;;25.90;24.47;;;24.80;89.00;;;;;;5011660;28;20497;-60
2023/06/25 05:14:22;;;;;;;27.33;26.03;;;24.80;89.00;;;;;;5010876;28;20561;-60
2023/06/25 05:16:49;;;;;;;25.43;24.43;;;24.80;88.50;;;;;;5011334;28;20454;-58
2023/06/25 05:19:16;;;;;;;25.97;24.77;;;24.80;88.60;;;;;;5011542;28;20532;-60
2023/06/25 05:21:43;;;;;;;26.63;25.43;;;24.80;88.60;;;;;;5011477;28;20477;-63
2023/06/25 05:24:11;;;;;;;25.87;24.77;;;24.90;88.90;;;;;;5011269;28;20481;-61
2023/06/25 05:26:38;;;;;;;26.13;24.93;;;24.90;88.80;;;;;;5011256;28;20442;-57
2023/06/25 05:29:05;;;;;;;27.00;25.80;;;24.90;89.20;;;;;;5011480;28;20477;-61
2023/06/25 05:31:32;;;;;;;26.03;24.93;;;24.90;89.20;;;;;;5011266;28;20462;-60
2023/06/25 05:33:59;;;;;;;27.50;26.20;;;24.90;89.20;;;;;;5014219;28;20921;-57
2023/06/25 05:36:26;;;;;;;26.00;24.80;;;24.90;89.30;;;;;;5015239;28;21225;-60
2023/06/25 05:38:53;;;;;;;25.83;24.70;;;24.90;89.50;;;;;;5015220;28;20816;-58
2023/06/25 05:41:21;;;;;;;25.90;24.80;;;24.90;90.10;;;;;;5014624;28;20477;-56
2023/06/25 05:43:48;;;;;;;26.77;25.47;;;25.00;90.20;;;;;;5015089;28;20494;-60
2023/06/25 05:46:15;;;;;;;27.50;26.30;;;25.00;90.20;;;;;;5014720;28;20959;-58
2023/06/25 05:48:42;;;;;;;26.10;24.90;;;25.00;90.30;;;;;;5015016;28;20963;-55
2023/06/25 05:51:09;;;;;;;27.30;26.10;;;25.10;90.00;;;;;;5014336;28;20533;-63
2023/06/25 05:53:40;;;;;;;27.33;26.13;;;25.10;90.00;;;;;;5014659;28;20520;-60
2023/06/25 05:56:08;;;;;;;27.03;25.83;;;25.00;89.90;;;;;;5014145;28;20474;-60
2023/06/25 05:58:37;;;;;;;27.53;26.33;;;25.00;90.20;;;;;;5014535;28;20744;-61
2023/06/25 06:01:04;;;;;;;27.43;25.80;;;25.10;90.30;;;;;;5012156;28;20828;-60
2023/06/25 06:03:31;;;;;;;28.07;26.30;;;25.10;90.40;;;;;;5016378;28;20684;-56
2023/06/25 06:05:58;;;;;;;27.23;25.93;;;25.10;90.40;;;;;;5014493;28;20572;-62
2023/06/25 06:08:28;;;;;;;26.60;25.53;;;25.10;90.20;;;;;;5014273;28;20492;-60
2023/06/25 06:10:55;;;;;;;29.20;27.60;;;25.10;90.10;;;;;;5014494;28;20450;-60
2023/06/25 06:13:22;;;;;;;26.87;25.77;;;25.20;90.10;;;;;;5014180;28;20505;-58
2023/06/25 06:15:50;;;;;;;27.90;26.80;;;25.20;90.30;;;;;;5013893;28;20446;-59
2023/06/25 06:18:17;;;;;;;29.47;28.17;;;25.20;90.40;;;;;;5014254;28;20541;-60
2023/06/25 06:20:44;;;;;;;29.97;28.57;;;25.20;90.30;;;;;;5014283;28;20446;-60
2023/06/25 06:23:11;;;;;;;27.83;26.70;;;25.20;90.70;;;;;;5014057;28;20557;-60
2023/06/25 06:25:38;;;;;;;30.40;29.10;;;25.30;90.50;;;;;;5013744;28;20542;-61
2023/06/25 06:28:05;;;;;;;29.93;28.67;;;25.30;90.30;;;;;;5014247;28;20473;-61
2023/06/25 06:30:32;;;;;;;29.20;27.90;;;25.30;90.10;;;;;;5014190;28;20513;-61
2023/06/25 06:33:00;;;;;;;29.53;28.03;;;25.30;90.30;;;;;;5014167;28;20548;-60
2023/06/25 06:35:27;;;;;;;26.47;25.47;;;25.40;90.50;;;;;;5013727;28;20564;-61
2023/06/25 06:37:53;;;;;;;27.57;26.20;;;25.40;90.30;;;;;;5014124;28;20532;-61
2023/06/25 06:40:20;;;;;;;26.87;25.77;;;25.40;90.10;;;;;;5013908;28;20485;-62
2023/06/25 06:42:47;;;;;;;28.10;26.60;;;25.50;90.30;;;;;;5013945;28;20552;-62
2023/06/25 06:45:14;;;;;;;27.73;26.23;;;25.50;91.00;;;;;;5012781;28;20486;-64
2023/06/25 06:47:41;;;;;;;27.40;26.30;;;25.50;90.60;;;;;;5013818;28;20496;-64
2023/06/25 06:50:10;;;;;;;29.43;28.13;;;25.50;90.10;;;;;;5013943;28;20886;-67
2023/06/25 06:52:37;;;;;;;26.30;25.20;;;25.60;90.20;;;;;;5013597;28;20566;-65
2023/06/25 06:55:05;;;;;;;28.37;27.07;;;25.60;90.40;;;;;;5013213;28;20504;-65
2023/06/25 06:57:32;;;;;;;28.60;27.40;;;25.70;90.20;;;;;;5013505;28;20504;-66
2023/06/25 06:59:59;;;;;;;27.57;26.23;;;25.70;90.20;;;;;;5013030;28;20477;-65
2023/06/25 07:02:26;;;;;;;29.20;28.03;;;25.80;90.00;;;;;;5012891;28;20501;-64
2023/06/25 07:04:53;;;;;;;27.50;26.30;;;25.80;90.00;;;;;;5013433;28;20477;-62
2023/06/25 07:07:21;;;;;;;27.83;26.33;;;25.90;90.00;;;;;;5013331;28;20477;-65
2023/06/25 07:09:53;;;;;;;28.17;26.83;;;25.90;89.80;;;;;;5013576;28;20503;-64
2023/06/25 07:12:20;;;;;;;28.13;26.93;;;26.00;90.00;;;;;;5013436;28;20466;-64
2023/06/25 07:14:47;;;;;;;29.80;28.50;;;26.00;90.50;;;;;;5013427;28;20572;-64
2023/06/25 07:17:14;;;;;;;28.83;27.53;;;26.10;90.00;;;;;;5013074;28;20481;-64
2023/06/25 07:19:41;;;;;;;29.30;28.10;;;26.10;88.90;;;;;;5013285;28;20478;-64
2023/06/25 07:22:08;;;;;;;28.37;27.17;;;26.10;88.60;;;;;;5013222;28;20505;-65
2023/06/25 07:24:39;;;;;;;28.70;27.50;;;26.20;88.80;;;;;;5013204;28;20474;-63
2023/06/25 07:27:09;;;;;;;28.30;27.00;;;26.30;88.90;;;;;;5013014;28;20497;-63
2023/06/25 07:29:36;;;;;;;28.30;27.00;;;26.20;89.20;;;;;;5013089;28;20450;-63
2023/06/25 07:32:03;;;;;;;28.87;27.57;;;26.30;88.50;;;;;;5014159;28;20595;-60
2023/06/25 07:34:30;;;;;;;29.87;28.57;;;26.30;87.60;;;;;;5013062;28;20600;-62
2023/06/25 07:36:56;;;;;;;28.40;27.30;;;26.30;87.70;;;;;;5012841;28;20865;-64
2023/06/25 07:39:26;;;;;;;28.10;26.80;;;26.30;87.50;;;;;;5012917;28;20557;-64
2023/06/25 07:41:54;;;;;;;28.77;27.50;;;26.30;87.40;;;;;;5012773;28;20466;-64
2023/06/25 07:44:21;;;;;;;28.73;27.53;;;26.40;87.80;;;;;;5012833;28;20456;-64
2023/06/25 07:46:48;;;;;;;28.90;27.70;;;26.40;87.40;;;;;;5012604;28;20478;-62
2023/06/25 07:49:15;;;;;;;29.63;28.43;;;26.50;87.10;;;;;;5012720;28;20991;-66
2023/06/25 07:51:44;;;;;;;29.23;27.97;;;26.50;87.20;;;;;;5012545;28;20851;-64
2023/06/25 07:54:12;;;;;;;28.63;27.23;;;26.50;87.50;;;;;;5012558;28;20493;-62
2023/06/25 07:56:39;;;;;;;27.93;26.70;;;26.60;86.90;;;;;;5011433;28;20585;-62
2023/06/25 07:59:07;;;;;;;29.53;27.80;;;26.70;86.40;;;;;;5012576;28;20441;-62
2023/06/25 08:01:34;;;;;;;29.23;27.93;;;26.60;85.20;;;;;;5012407;28;20450;-64
2023/06/25 08:04:01;;;;;;;27.17;25.80;;;26.70;84.40;;;;;;5012491;28;20978;-61
2023/06/25 08:06:28;;;;;;;28.77;27.47;;;26.70;84.10;;;;;;5012261;28;20504;-64
2023/06/25 08:08:54;;;;;;;28.77;27.50;;;26.70;83.30;;;;;;5011903;28;20474;-64
2023/06/25 08:11:21;;;;;;;29.10;27.73;;;26.80;83.70;;;;;;5012268;28;20478;-64
2023/06/25 08:13:48;;;;;;;29.93;28.73;;;26.80;84.00;;;;;;5012164;28;20549;-64
2023/06/25 08:16:17;;;;;;;26.43;25.33;;;26.80;83.30;;;;;;5012137;28;20480;-64
2023/06/25 08:18:43;;;;;;;28.40;26.90;;;26.80;83.50;;;;;;5014472;28;20469;-65
2023/06/25 08:21:10;;;;;;;26.73;25.67;;;26.90;83.60;;;;;;5015593;28;20589;-66
2023/06/25 08:23:37;;;;;;;29.73;28.33;;;26.90;83.70;;;;;;5013902;28;20505;-66
2023/06/25 08:26:04;;;;;;;29.60;28.30;;;27.00;83.70;;;;;;5012508;28;20478;-62
2023/06/25 08:28:31;;;;;;;30.30;28.87;;;27.00;82.40;;;;;;5011248;28;20450;-67
2023/06/25 08:30:58;;;;;;;31.63;29.70;;;27.00;82.40;;;;;;5011950;28;20489;-67
2023/06/25 08:33:26;;;;;;;28.60;27.40;;;27.00;81.70;;;;;;5012001;28;20469;-67
2023/06/25 08:35:55;;;;;;;30.47;29.17;;;27.00;81.20;;;;;;5011763;28;20524;-66
2023/06/25 08:38:22;;;;;;;28.50;27.30;;;27.10;80.30;;;;;;5011817;28;20944;-67
2023/06/25 08:40:49;;;;;;;27.63;26.33;;;27.10;79.90;;;;;;5011952;28;20478;-66
2023/06/25 08:43:17;;;;;;;29.20;27.97;;;27.10;80.10;;;;;;5011794;28;20497;-65
2023/06/25 08:45:44;;;;;;;27.70;26.50;;;27.10;80.60;;;;;;5011747;28;20526;-65
2023/06/25 08:48:13;;;;;;;28.17;26.97;;;27.20;81.70;;;;;;5011337;28;20900;-66
2023/06/25 08:50:43;;;;;;;29.93;28.63;;;27.20;82.20;;;;;;5011481;28;20446;-66
2023/06/25 08:53:10;;;;;;;29.90;28.60;;;27.20;80.00;;;;;;5011645;28;20484;-66
2023/06/25 08:55:38;;;;;;;28.07;26.87;;;27.30;79.00;;;;;;5011529;28;20577;-66
2023/06/25 08:58:05;;;;;;;27.37;26.20;;;27.30;79.20;;;;;;5011742;28;20529;-67
2023/06/25 09:00:32;;;;;;;28.37;26.97;;;27.40;79.60;;;;;;5011305;28;20484;-66
2023/06/25 09:02:59;;;;;;;28.30;27.03;;;27.40;78.20;;;;;;5011773;28;20469;-65
2023/06/25 09:05:27;;;;;;;30.70;29.17;;;27.40;77.60;;;;;;5011301;28;20477;-65
2023/06/25 09:07:56;;;;;;;27.10;25.90;;;27.40;78.00;;;;;;5013067;28;20481;-65
2023/06/25 09:10:23;;;;;;;31.33;29.87;;;27.40;78.00;;;;;;5015577;28;20450;-66
2023/06/25 09:12:51;;;;;;;29.33;28.20;;;27.40;78.20;;;;;;5015691;28;21053;-65
2023/06/25 09:15:22;;;;;;;29.53;28.30;;;27.50;76.90;;;;;;5015726;28;20873;-66
2023/06/25 09:17:49;;;;;;;27.70;26.60;;;27.50;75.50;;;;;;5015589;28;21021;-65
2023/06/25 09:20:16;;;;;;;29.03;27.80;;;27.50;75.20;;;;;;5015284;28;20939;-66
2023/06/25 09:22:52;;;;;;;27.70;26.50;;;27.60;75.20;;;;;;5015440;28;20497;-66
2023/06/25 09:25:23;;;;;;;28.93;27.83;;;27.60;75.30;;;;;;5015275;28;20962;-66
2023/06/25 09:27:50;;;;;;;31.40;30.10;;;27.70;74.60;;;;;;5015517;28;20453;-65
2023/06/25 09:30:18;;;;;;;30.63;29.33;;;27.60;73.10;;;;;;5015166;28;20481;-66
2023/06/25 09:32:52;;;;;;;26.83;25.73;;;27.70;73.30;;;;;;5015117;28;20552;-66
2023/06/25 09:35:20;;;;;;;31.63;30.30;;;27.70;72.80;;;;;;5015130;28;20568;-66
2023/06/25 09:37:47;;;;;;;30.43;29.03;;;27.70;73.00;;;;;;5015291;28;20486;-64
2023/06/25 09:40:14;;;;;;;29.90;28.70;;;27.70;72.90;;;;;;5015143;28;20526;-65
2023/06/25 09:42:44;;;;;;;29.60;28.30;;;27.70;72.40;;;;;;5015236;28;20903;-64
2023/06/25 09:45:15;;;;;;;29.60;28.30;;;27.80;72.10;;;;;;5015060;28;20442;-67
2023/06/25 09:47:43;;;;;;;29.00;27.80;;;27.80;71.50;;;;;;5014881;28;20450;-66
2023/06/25 09:50:17;;;;;;;29.27;28.07;;;27.80;71.20;;;;;;5014802;28;20450;-67
2023/06/25 09:52:48;;;;;;;27.80;26.70;;;27.80;69.40;;;;;;5014759;28;20987;-64
2023/06/25 09:55:17;;;;;;;26.87;25.77;;;27.80;64.20;;;;;;5014740;28;20568;-65
2023/06/25 09:57:45;;;;;;;27.60;26.43;;;27.80;64.10;;;;;;5014796;28;20540;-67
2023/06/25 10:00:14;;;;;;;27.50;26.50;;;27.80;64.50;;;;;;5014565;28;21078;-66
2023/06/25 10:02:40;;;;;;;30.77;29.13;;;27.80;64.50;;;;;;5014829;28;20477;-66
2023/06/25 10:05:08;;;;;;;28.30;27.00;;;27.80;64.10;;;;;;5014797;28;20480;-65
2023/06/25 10:07:35;;;;;;;27.60;26.47;;;27.80;63.90;;;;;;5014452;28;20477;-64
2023/06/25 10:10:02;;;;;;;29.83;28.63;;;27.80;64.10;;;;;;5014406;28;20483;-64
2023/06/25 10:12:33;;;;;;;27.47;26.33;;;27.80;63.10;;;;;;5014596;28;20990;-60
2023/06/25 10:15:04;;;;;;;28.77;27.53;;;27.90;63.40;;;;;;5014381;28;20488;-59
2023/06/25 10:17:31;;;;;;;27.77;26.67;;;27.90;62.70;;;;;;5014499;28;20485;-61
2023/06/25 10:20:00;;;;;;;28.47;27.27;;;27.90;62.10;;;;;;5013100;28;20442;-57
2023/06/25 10:22:28;;;;;;;27.87;26.60;;;27.90;62.00;;;;;;5014315;28;21041;-62
2023/06/25 10:24:56;;;;;;;29.83;28.57;;;27.90;61.80;;;;;;5014267;28;20805;-62
2023/06/25 10:27:29;;;;;;;28.90;27.70;;;28.00;61.50;;;;;;5014188;28;20456;-59
2023/06/25 10:29:57;;;;;;;28.07;26.93;;;28.00;61.10;;;;;;5014372;28;20450;-64
2023/06/25 10:32:27;;;;;;;28.17;27.03;;;28.00;60.70;;;;;;5014070;28;20501;-64
2023/06/25 10:34:55;;;;;;;27.37;26.27;;;28.00;60.70;;;;;;5013975;28;20509;-65
2023/06/25 10:37:23;;;;;;;28.13;26.83;;;28.00;59.80;;;;;;5013937;28;20471;-65
2023/06/25 10:39:50;;;;;;;27.47;26.30;;;28.00;59.90;;;;;;5013823;28;20538;-66
2023/06/25 10:42:18;;;;;;;28.97;27.77;;;28.10;58.00;;;;;;5013950;28;20469;-64
2023/06/25 10:44:46;;;;;;;30.10;28.80;;;28.10;58.70;;;;;;5014021;28;20875;-64
2023/06/25 10:47:13;;;;;;;27.57;26.47;;;28.10;58.70;;;;;;5013702;28;20477;-62
2023/06/25 10:49:41;;;;;;;27.97;26.70;;;28.20;58.70;;;;;;5013722;28;20478;-63
2023/06/25 10:52:08;;;;;;;25.73;24.70;;;28.20;58.60;;;;;;5014213;28;20501;-66
2023/06/25 10:54:35;;;;;;;28.83;27.43;;;28.20;58.60;;;;;;5013710;28;20486;-65
2023/06/25 10:57:09;;;;;;;28.53;27.43;;;28.30;57.50;;;;;;5013422;28;20488;-66
2023/06/25 10:59:36;;;;;;;28.77;27.57;;;28.20;57.10;;;;;;5013474;28;20528;-67
2023/06/25 11:02:17;;;;;;;30.83;29.33;;;28.30;57.70;;;;;;5013570;28;20500;-64
2023/06/25 11:04:52;;;;;;;30.47;29.10;;;28.30;58.40;;;;;;5013595;28;20533;-61
2023/06/25 11:07:20;;;;;;;30.00;28.70;;;28.40;57.90;;;;;;5013320;28;20998;-64
2023/06/25 11:09:50;;;;;;;28.80;27.60;;;28.40;58.10;;;;;;5013186;28;20489;-63
2023/06/25 11:12:17;;;;;;;27.90;26.73;;;28.40;57.60;;;;;;5013461;28;20557;-61
2023/06/25 11:14:45;;;;;;;28.17;26.67;;;28.40;57.80;;;;;;5013245;28;20533;-63
2023/06/25 11:17:14;;;;;;;28.40;27.20;;;28.40;58.00;;;;;;5012783;28;20442;-64
2023/06/25 11:19:41;;;;;;;29.87;28.57;;;28.30;58.40;;;;;;5013143;28;20481;-62
2023/06/25 11:22:10;;;;;;;29.07;27.83;;;28.30;58.60;;;;;;5013061;28;20549;-62
2023/06/25 11:24:38;;;;;;;26.87;25.73;;;28.40;58.50;;;;;;5013162;28;20477;-62
2023/06/25 11:27:06;;;;;;;28.83;27.63;;;28.30;58.20;;;;;;5012795;28;20868;-63
2023/06/25 11:29:37;;;;;;;30.80;29.60;;;28.30;58.30;;;;;;5013166;28;20540;-63
2023/06/25 11:32:08;;;;;;;28.50;27.30;;;28.30;58.50;;;;;;5012829;28;20553;-64
2023/06/25 11:34:35;;;;;;;29.87;28.50;;;28.40;58.60;;;;;;5013089;28;20821;-61
2023/06/25 11:37:14;;;;;;;30.37;28.97;;;28.40;58.70;;;;;;5012541;28;20572;-62
2023/06/25 11:39:45;;;;;;;26.93;25.93;;;28.30;59.10;;;;;;5013034;28;20489;-60
2023/06/25 11:42:14;;;;;;;30.27;29.03;;;28.30;58.90;;;;;;5012833;28;20474;-60
2023/06/25 11:44:41;;;;;;;29.90;28.70;;;28.30;59.00;;;;;;5012822;28;20450;-62
2023/06/25 11:47:08;;;;;;;30.33;29.03;;;28.30;59.10;;;;;;5012548;28;20481;-66
2023/06/25 11:49:35;;;;;;;29.80;28.50;;;28.30;58.50;;;;;;5012757;28;20481;-65
2023/06/25 11:52:02;;;;;;;30.40;29.00;;;28.30;58.60;;;;;;5012544;28;20657;-65
2023/06/25 11:54:30;;;;;;;27.50;26.40;;;28.30;58.60;;;;;;5012748;28;20477;-65
2023/06/25 11:56:57;;;;;;;29.87;28.57;;;28.30;58.30;;;;;;5012106;28;20564;-64
2023/06/25 11:59:24;;;;;;;27.47;26.37;;;28.20;58.50;;;;;;5012693;28;20893;-64
2023/06/25 12:01:51;;;;;;;29.33;28.13;;;28.20;57.90;;;;;;5012457;28;20502;-63
2023/06/25 12:04:18;;;;;;;28.93;27.73;;;28.20;58.30;;;;;;5012516;28;20477;-65
2023/06/25 12:06:45;;;;;;;28.77;27.57;;;28.30;58.40;;;;;;5011740;28;20959;-61
2023/06/25 12:09:12;;;;;;;27.90;26.80;;;28.30;58.70;;;;;;5012548;28;20501;-62
2023/06/25 12:11:40;;;;;;;31.90;30.53;;;28.40;58.20;;;;;;5011370;28;20546;-54
2023/06/25 12:14:07;;;;;;;29.43;28.23;;;28.40;57.80;;;;;;5012261;28;20901;-61
2023/06/25 12:16:34;;;;;;;28.83;27.60;;;28.40;57.80;;;;;;5012089;28;20912;-57
2023/06/25 12:19:01;;;;;;;28.83;27.63;;;28.50;57.60;;;;;;5012332;28;20496;-61
2023/06/25 12:21:27;;;;;;;28.60;27.40;;;28.50;57.40;;;;;;5011935;28;20536;-61
2023/06/25 12:23:54;;;;;;;28.43;27.23;;;28.50;56.90;;;;;;5012026;28;20470;-59
2023/06/25 12:26:21;;;;;;;30.53;29.23;;;28.60;57.00;;;;;;5012056;28;20464;-56
2023/06/25 12:28:50;;;;;;;45.10;42.80;;;28.60;56.40;;;;;;5012125;28;20457;-62
2023/06/25 12:31:17;;;;;;;40.80;38.70;;;28.60;55.90;;;;;;5011667;28;21010;-61